sensor_id;sensor_type;location;lat;lon;timestamp;temperature;humidity
12720;DHT22;6424;48.520;11.228;2023-12-04T00:00:53;-9.10;99.90
12720;DHT22;6424;48.520;11.228;2023-12-04T00:03:37;-9.10;99.90
12720;DHT22;6424;48.520;11.228;2023-12-04T00:06:23;-9.10;99.90
12720;DHT22;6424;48.520;11.228;2023-12-04T00:09:08;-9.10;99.90
12720;DHT22;6424;48.520;11.228;2023-12-04T00:11:52;-9.10;99.90
12720;DHT22;6424;48.520;11.228;2023-12-04T00:14:36;-9.10;99.90
12720;DHT22;6424;48.520;11.228;2023-12-04T00:17:21;-9.10;99.90
12720;DHT22;6424;48.520;11.228;2023-12-04T00:20:07;-9.10;99.90
12720;DHT22;6424;48.520;11.228;2023-12-04T00:22:53;-9.10;99.90
12720;DHT22;6424;48.520;11.228;2023-12-04T00:25:38;-9.10;99.90
12720;DHT22;6424;48.520;11.228;2023-12-04T00:28:22;-9.20;99.90
12720;DHT22;6424;48.520;11.228;2023-12-04T00:31:06;-9.20;99.90
12720;DHT22;6424;48.520;11.228;2023-12-04T00:33:51;-9.30;99.90
12720;DHT22;6424;48.520;11.228;2023-12-04T00:36:35;-9.30;99.90
12720;DHT22;6424;48.520;11.228;2023-12-04T00:39:19;-9.40;99.90
12720;DHT22;6424;48.520;11.228;2023-12-04T00:42:04;-9.40;99.90
12720;DHT22;6424;48.520;11.228;2023-12-04T00:44:48;-9.40;99.90
12720;DHT22;6424;48.520;11.228;2023-12-04T00:47:33;-9.40;99.90
12720;DHT22;6424;48.520;11.228;2023-12-04T00:50:17;-9.40;99.90
12720;DHT22;6424;48.520;11.228;2023-12-04T00:53:01;-9.50;99.90
12720;DHT22;6424;48.520;11.228;2023-12-04T00:55:45;-9.50;99.90
12720;DHT22;6424;48.520;11.228;2023-12-04T00:58:29;-9.60;99.90
12720;DHT22;6424;48.520;11.228;2023-12-04T01:01:13;-9.70;99.90
12720;DHT22;6424;48.520;11.228;2023-12-04T01:03:58;-9.80;99.90
12720;DHT22;6424;48.520;11.228;2023-12-04T01:06:42;-9.90;99.90
12720;DHT22;6424;48.520;11.228;2023-12-04T01:09:27;-10.00;99.90
12720;DHT22;6424;48.520;11.228;2023-12-04T01:12:11;-10.10;99.90
12720;DHT22;6424;48.520;11.228;2023-12-04T01:14:55;-10.10;99.90
12720;DHT22;6424;48.520;11.228;2023-12-04T01:17:39;-10.10;99.90
12720;DHT22;6424;48.520;11.228;2023-12-04T01:20:24;-10.10;99.90
12720;DHT22;6424;48.520;11.228;2023-12-04T01:23:09;-10.10;99.90
12720;DHT22;6424;48.520;11.228;2023-12-04T01:25:53;-10.20;99.90
12720;DHT22;6424;48.520;11.228;2023-12-04T01:28:37;-10.20;99.90
12720;DHT22;6424;48.520;11.228;2023-12-04T01:31:21;-10.30;99.90
12720;DHT22;6424;48.520;11.228;2023-12-04T01:34:06;-10.40;99.90
12720;DHT22;6424;48.520;11.228;2023-12-04T01:36:50;-10.40;99.90
12720;DHT22;6424;48.520;11.228;2023-12-04T01:39:35;-10.50;99.90
12720;DHT22;6424;48.520;11.228;2023-12-04T01:42:19;-10.50;99.90
12720;DHT22;6424;48.520;11.228;2023-12-04T01:45:03;-10.70;99.90
12720;DHT22;6424;48.520;11.228;2023-12-04T01:47:48;-10.80;99.90
12720;DHT22;6424;48.520;11.228;2023-12-04T01:50:33;-10.80;99.90
12720;DHT22;6424;48.520;11.228;2023-12-04T01:56:04;-10.90;99.90
12720;DHT22;6424;48.520;11.228;2023-12-04T01:58:48;-10.90;99.90
12720;DHT22;6424;48.520;11.228;2023-12-04T02:01:33;-10.80;99.90
12720;DHT22;6424;48.520;11.228;2023-12-04T02:04:18;-10.80;99.90
12720;DHT22;6424;48.520;11.228;2023-12-04T02:07:03;-10.80;99.90
12720;DHT22;6424;48.520;11.228;2023-12-04T02:09:47;-10.80;99.90
12720;DHT22;6424;48.520;11.228;2023-12-04T02:12:31;-10.80;99.90
12720;DHT22;6424;48.520;11.228;2023-12-04T02:15:15;-10.80;99.90
12720;DHT22;6424;48.520;11.228;2023-12-04T02:18:03;-10.80;99.90
12720;DHT22;6424;48.520;11.228;2023-12-04T02:20:48;-10.80;99.90
12720;DHT22;6424;48.520;11.228;2023-12-04T02:23:32;-10.80;99.90
12720;DHT22;6424;48.520;11.228;2023-12-04T02:26:18;-10.80;99.90
12720;DHT22;6424;48.520;11.228;2023-12-04T02:29:07;-10.80;99.90
12720;DHT22;6424;48.520;11.228;2023-12-04T02:31:56;-10.70;99.90
12720;DHT22;6424;48.520;11.228;2023-12-04T02:34:41;-10.80;99.90
12720;DHT22;6424;48.520;11.228;2023-12-04T02:37:28;-10.80;99.90
12720;DHT22;6424;48.520;11.228;2023-12-04T02:40:12;-10.80;99.90
12720;DHT22;6424;48.520;11.228;2023-12-04T02:42:57;-10.80;99.90
12720;DHT22;6424;48.520;11.228;2023-12-04T02:45:42;-10.90;99.90
12720;DHT22;6424;48.520;11.228;2023-12-04T02:48:26;-10.80;99.90
12720;DHT22;6424;48.520;11.228;2023-12-04T02:51:10;-10.80;99.90
12720;DHT22;6424;48.520;11.228;2023-12-04T02:53:55;-10.90;99.90
12720;DHT22;6424;48.520;11.228;2023-12-04T02:56:39;-10.90;99.90
12720;DHT22;6424;48.520;11.228;2023-12-04T02:59:23;-10.90;99.90
12720;DHT22;6424;48.520;11.228;2023-12-04T03:02:07;-10.90;99.90
12720;DHT22;6424;48.520;11.228;2023-12-04T03:04:51;-10.90;99.90
12720;DHT22;6424;48.520;11.228;2023-12-04T03:07:35;-10.90;99.90
12720;DHT22;6424;48.520;11.228;2023-12-04T03:10:19;-10.90;99.90
12720;DHT22;6424;48.520;11.228;2023-12-04T03:13:03;-10.90;99.90
12720;DHT22;6424;48.520;11.228;2023-12-04T03:15:47;-10.90;99.90
12720;DHT22;6424;48.520;11.228;2023-12-04T03:18:31;-10.90;99.90
12720;DHT22;6424;48.520;11.228;2023-12-04T03:21:15;-10.90;99.90
12720;DHT22;6424;48.520;11.228;2023-12-04T03:24:00;-10.90;99.90
12720;DHT22;6424;48.520;11.228;2023-12-04T03:26:44;-10.90;99.90
12720;DHT22;6424;48.520;11.228;2023-12-04T03:29:29;-10.90;99.90
12720;DHT22;6424;48.520;11.228;2023-12-04T03:32:13;-11.00;99.90
12720;DHT22;6424;48.520;11.228;2023-12-04T03:34:57;-11.00;99.90
12720;DHT22;6424;48.520;11.228;2023-12-04T03:37:42;-11.00;99.90
12720;DHT22;6424;48.520;11.228;2023-12-04T03:40:26;-10.90;99.90
12720;DHT22;6424;48.520;11.228;2023-12-04T03:43:11;-11.00;99.90
12720;DHT22;6424;48.520;11.228;2023-12-04T03:45:55;-11.00;99.90
12720;DHT22;6424;48.520;11.228;2023-12-04T03:48:39;-11.00;99.90
12720;DHT22;6424;48.520;11.228;2023-12-04T03:51:23;-11.00;99.90
12720;DHT22;6424;48.520;11.228;2023-12-04T03:54:07;-11.00;99.90
12720;DHT22;6424;48.520;11.228;2023-12-04T03:56:51;-11.00;99.90
12720;DHT22;6424;48.520;11.228;2023-12-04T03:59:36;-11.00;99.90
12720;DHT22;6424;48.520;11.228;2023-12-04T04:02:20;-11.00;99.90
12720;DHT22;6424;48.520;11.228;2023-12-04T04:05:04;-11.00;99.90
12720;DHT22;6424;48.520;11.228;2023-12-04T04:07:48;-10.90;99.90
12720;DHT22;6424;48.520;11.228;2023-12-04T04:10:34;-10.90;99.90
12720;DHT22;6424;48.520;11.228;2023-12-04T04:13:18;-10.90;99.90
12720;DHT22;6424;48.520;11.228;2023-12-04T04:16:02;-10.90;99.90
12720;DHT22;6424;48.520;11.228;2023-12-04T04:18:47;-10.90;99.90
12720;DHT22;6424;48.520;11.228;2023-12-04T04:21:31;-10.90;99.90
12720;DHT22;6424;48.520;11.228;2023-12-04T04:24:15;-10.80;99.90
12720;DHT22;6424;48.520;11.228;2023-12-04T04:27:00;-10.80;99.90
12720;DHT22;6424;48.520;11.228;2023-12-04T04:29:44;-10.80;99.90
12720;DHT22;6424;48.520;11.228;2023-12-04T04:32:28;-10.80;99.90
12720;DHT22;6424;48.520;11.228;2023-12-04T04:35:13;-10.80;99.90
12720;DHT22;6424;48.520;11.228;2023-12-04T04:37:57;-10.80;99.90
12720;DHT22;6424;48.520;11.228;2023-12-04T04:40:42;-10.90;99.90
12720;DHT22;6424;48.520;11.228;2023-12-04T04:43:27;-11.00;99.90
12720;DHT22;6424;48.520;11.228;2023-12-04T04:46:11;-11.00;99.90
12720;DHT22;6424;48.520;11.228;2023-12-04T04:48:55;-11.10;99.90
12720;DHT22;6424;48.520;11.228;2023-12-04T04:51:40;-11.10;99.90
12720;DHT22;6424;48.520;11.228;2023-12-04T04:54:24;-11.20;99.90
12720;DHT22;6424;48.520;11.228;2023-12-04T04:57:08;-11.10;99.90
12720;DHT22;6424;48.520;11.228;2023-12-04T04:59:53;-11.10;99.90
12720;DHT22;6424;48.520;11.228;2023-12-04T05:02:37;-11.10;99.90
12720;DHT22;6424;48.520;11.228;2023-12-04T05:05:21;-11.00;99.90
12720;DHT22;6424;48.520;11.228;2023-12-04T05:08:05;-11.00;99.90
12720;DHT22;6424;48.520;11.228;2023-12-04T05:10:50;-11.00;99.90
12720;DHT22;6424;48.520;11.228;2023-12-04T05:13:34;-11.00;99.90
12720;DHT22;6424;48.520;11.228;2023-12-04T05:16:19;-11.00;99.90
12720;DHT22;6424;48.520;11.228;2023-12-04T05:19:03;-10.90;99.90
12720;DHT22;6424;48.520;11.228;2023-12-04T05:21:47;-10.90;99.90
12720;DHT22;6424;48.520;11.228;2023-12-04T05:24:31;-10.90;99.90
12720;DHT22;6424;48.520;11.228;2023-12-04T05:27:16;-10.80;99.90
12720;DHT22;6424;48.520;11.228;2023-12-04T05:30:00;-10.80;99.90
12720;DHT22;6424;48.520;11.228;2023-12-04T05:32:44;-10.80;99.90
12720;DHT22;6424;48.520;11.228;2023-12-04T05:35:28;-10.90;99.90
12720;DHT22;6424;48.520;11.228;2023-12-04T05:38:12;-10.80;99.90
12720;DHT22;6424;48.520;11.228;2023-12-04T05:40:57;-10.80;99.90
12720;DHT22;6424;48.520;11.228;2023-12-04T05:43:41;-10.80;99.90
12720;DHT22;6424;48.520;11.228;2023-12-04T05:46:25;-10.90;99.90
12720;DHT22;6424;48.520;11.228;2023-12-04T05:49:10;-11.00;99.90
12720;DHT22;6424;48.520;11.228;2023-12-04T05:51:54;-11.00;99.90
12720;DHT22;6424;48.520;11.228;2023-12-04T05:54:38;-11.10;99.90
12720;DHT22;6424;48.520;11.228;2023-12-04T05:57:22;-11.10;99.90
12720;DHT22;6424;48.520;11.228;2023-12-04T06:00:07;-11.10;99.90
12720;DHT22;6424;48.520;11.228;2023-12-04T06:02:58;-11.10;99.90
12720;DHT22;6424;48.520;11.228;2023-12-04T06:05:42;-11.10;99.90
12720;DHT22;6424;48.520;11.228;2023-12-04T06:08:26;-11.10;99.90
12720;DHT22;6424;48.520;11.228;2023-12-04T06:11:10;-11.10;99.90
12720;DHT22;6424;48.520;11.228;2023-12-04T06:13:54;-11.00;99.90
12720;DHT22;6424;48.520;11.228;2023-12-04T06:16:39;-11.00;99.90
12720;DHT22;6424;48.520;11.228;2023-12-04T06:19:23;-11.00;99.90
12720;DHT22;6424;48.520;11.228;2023-12-04T06:22:07;-11.00;99.90
12720;DHT22;6424;48.520;11.228;2023-12-04T06:24:52;-11.00;99.90
12720;DHT22;6424;48.520;11.228;2023-12-04T06:27:37;-11.10;99.90
12720;DHT22;6424;48.520;11.228;2023-12-04T06:30:23;-11.10;99.90
12720;DHT22;6424;48.520;11.228;2023-12-04T06:33:07;-11.10;99.90
12720;DHT22;6424;48.520;11.228;2023-12-04T06:35:52;-11.10;99.90
12720;DHT22;6424;48.520;11.228;2023-12-04T06:38:39;-11.20;99.90
12720;DHT22;6424;48.520;11.228;2023-12-04T06:41:24;-11.20;99.90
12720;DHT22;6424;48.520;11.228;2023-12-04T06:44:09;-11.20;99.90
12720;DHT22;6424;48.520;11.228;2023-12-04T06:46:55;-11.30;99.90
12720;DHT22;6424;48.520;11.228;2023-12-04T06:49:40;-11.30;99.90
12720;DHT22;6424;48.520;11.228;2023-12-04T06:52:24;-11.30;99.90
12720;DHT22;6424;48.520;11.228;2023-12-04T06:55:08;-11.30;99.90
12720;DHT22;6424;48.520;11.228;2023-12-04T06:57:53;-11.30;99.90
12720;DHT22;6424;48.520;11.228;2023-12-04T07:00:37;-11.30;99.90
12720;DHT22;6424;48.520;11.228;2023-12-04T07:03:22;-11.30;99.90
12720;DHT22;6424;48.520;11.228;2023-12-04T07:06:07;-11.30;99.90
12720;DHT22;6424;48.520;11.228;2023-12-04T07:08:51;-11.40;99.90
12720;DHT22;6424;48.520;11.228;2023-12-04T07:11:36;-11.30;99.90
12720;DHT22;6424;48.520;11.228;2023-12-04T07:14:20;-11.30;99.90
12720;DHT22;6424;48.520;11.228;2023-12-04T07:17:04;-11.30;99.90
12720;DHT22;6424;48.520;11.228;2023-12-04T07:19:49;-11.30;99.90
12720;DHT22;6424;48.520;11.228;2023-12-04T07:22:33;-11.20;99.90
12720;DHT22;6424;48.520;11.228;2023-12-04T07:25:17;-11.20;99.90
12720;DHT22;6424;48.520;11.228;2023-12-04T07:28:02;-11.20;99.90
12720;DHT22;6424;48.520;11.228;2023-12-04T07:30:46;-11.10;99.90
12720;DHT22;6424;48.520;11.228;2023-12-04T07:33:30;-11.00;99.90
12720;DHT22;6424;48.520;11.228;2023-12-04T07:36:14;-10.80;99.90
12720;DHT22;6424;48.520;11.228;2023-12-04T07:38:58;-10.70;99.90
12720;DHT22;6424;48.520;11.228;2023-12-04T07:41:43;-10.60;99.90
12720;DHT22;6424;48.520;11.228;2023-12-04T07:44:27;-10.50;99.90
12720;DHT22;6424;48.520;11.228;2023-12-04T07:47:11;-10.40;99.90
12720;DHT22;6424;48.520;11.228;2023-12-04T07:49:55;-10.20;99.90
12720;DHT22;6424;48.520;11.228;2023-12-04T07:52:39;-10.20;99.90
12720;DHT22;6424;48.520;11.228;2023-12-04T07:55:23;-10.20;99.90
12720;DHT22;6424;48.520;11.228;2023-12-04T07:58:07;-10.20;99.90
12720;DHT22;6424;48.520;11.228;2023-12-04T08:00:51;-10.20;99.90
12720;DHT22;6424;48.520;11.228;2023-12-04T08:03:36;-10.10;99.90
12720;DHT22;6424;48.520;11.228;2023-12-04T08:06:20;-10.00;99.90
12720;DHT22;6424;48.520;11.228;2023-12-04T08:09:04;-9.90;99.90
12720;DHT22;6424;48.520;11.228;2023-12-04T08:11:53;-9.80;99.90
12720;DHT22;6424;48.520;11.228;2023-12-04T08:14:37;-9.80;99.90
12720;DHT22;6424;48.520;11.228;2023-12-04T08:17:21;-9.80;99.90
12720;DHT22;6424;48.520;11.228;2023-12-04T08:20:06;-9.80;99.90
12720;DHT22;6424;48.520;11.228;2023-12-04T08:22:50;-9.80;99.90
12720;DHT22;6424;48.520;11.228;2023-12-04T08:25:35;-9.70;99.90
12720;DHT22;6424;48.520;11.228;2023-12-04T08:28:22;-9.70;99.90
12720;DHT22;6424;48.520;11.228;2023-12-04T08:31:10;-9.60;99.90
12720;DHT22;6424;48.520;11.228;2023-12-04T08:33:54;-9.50;99.90
12720;DHT22;6424;48.520;11.228;2023-12-04T08:36:39;-9.30;99.90
12720;DHT22;6424;48.520;11.228;2023-12-04T08:39:24;-9.20;99.90
12720;DHT22;6424;48.520;11.228;2023-12-04T08:42:08;-9.10;99.90
12720;DHT22;6424;48.520;11.228;2023-12-04T08:44:52;-8.90;99.90
12720;DHT22;6424;48.520;11.228;2023-12-04T08:47:36;-8.80;99.90
12720;DHT22;6424;48.520;11.228;2023-12-04T08:50:21;-8.60;99.90
12720;DHT22;6424;48.520;11.228;2023-12-04T08:53:06;-8.50;99.90
12720;DHT22;6424;48.520;11.228;2023-12-04T08:55:50;-8.30;99.90
12720;DHT22;6424;48.520;11.228;2023-12-04T08:58:36;-8.10;99.90
12720;DHT22;6424;48.520;11.228;2023-12-04T09:01:20;-8.00;99.90
12720;DHT22;6424;48.520;11.228;2023-12-04T09:04:04;-7.90;99.90
12720;DHT22;6424;48.520;11.228;2023-12-04T09:06:49;-7.90;99.90
12720;DHT22;6424;48.520;11.228;2023-12-04T09:09:33;-7.80;99.90
12720;DHT22;6424;48.520;11.228;2023-12-04T09:12:17;-7.80;99.90
12720;DHT22;6424;48.520;11.228;2023-12-04T09:15:02;-7.70;99.90
12720;DHT22;6424;48.520;11.228;2023-12-04T09:17:46;-7.60;99.90
12720;DHT22;6424;48.520;11.228;2023-12-04T09:20:30;-7.50;99.90
12720;DHT22;6424;48.520;11.228;2023-12-04T09:23:15;-7.50;99.90
12720;DHT22;6424;48.520;11.228;2023-12-04T09:25:59;-7.50;99.90
12720;DHT22;6424;48.520;11.228;2023-12-04T09:28:43;-7.50;99.90
12720;DHT22;6424;48.520;11.228;2023-12-04T09:31:27;-7.50;99.90
12720;DHT22;6424;48.520;11.228;2023-12-04T09:34:11;-7.40;99.90
12720;DHT22;6424;48.520;11.228;2023-12-04T09:36:55;-7.30;99.90
12720;DHT22;6424;48.520;11.228;2023-12-04T09:39:40;-7.30;99.90
12720;DHT22;6424;48.520;11.228;2023-12-04T09:42:24;-7.20;99.90
12720;DHT22;6424;48.520;11.228;2023-12-04T09:45:10;-7.10;99.90
12720;DHT22;6424;48.520;11.228;2023-12-04T09:47:55;-7.10;99.90
12720;DHT22;6424;48.520;11.228;2023-12-04T09:50:40;-7.00;99.90
12720;DHT22;6424;48.520;11.228;2023-12-04T09:53:26;-6.90;99.90
12720;DHT22;6424;48.520;11.228;2023-12-04T09:56:11;-6.80;99.90
12720;DHT22;6424;48.520;11.228;2023-12-04T09:58:59;-6.70;99.90
12720;DHT22;6424;48.520;11.228;2023-12-04T10:01:45;-6.50;99.90
12720;DHT22;6424;48.520;11.228;2023-12-04T10:04:32;-6.40;99.90
12720;DHT22;6424;48.520;11.228;2023-12-04T10:07:17;-6.30;99.90
12720;DHT22;6424;48.520;11.228;2023-12-04T10:10:01;-6.20;99.90
12720;DHT22;6424;48.520;11.228;2023-12-04T10:12:46;-6.00;99.90
12720;DHT22;6424;48.520;11.228;2023-12-04T10:15:30;-6.00;99.90
12720;DHT22;6424;48.520;11.228;2023-12-04T10:18:28;-5.90;99.90
12720;DHT22;6424;48.520;11.228;2023-12-04T10:21:15;-5.80;99.90
12720;DHT22;6424;48.520;11.228;2023-12-04T10:23:59;-5.90;99.90
12720;DHT22;6424;48.520;11.228;2023-12-04T10:26:50;-6.10;99.90
12720;DHT22;6424;48.520;11.228;2023-12-04T10:29:46;-6.20;99.90
12720;DHT22;6424;48.520;11.228;2023-12-04T10:32:31;-6.20;99.90
12720;DHT22;6424;48.520;11.228;2023-12-04T10:35:15;-6.20;99.90
12720;DHT22;6424;48.520;11.228;2023-12-04T10:38:01;-6.10;99.90
12720;DHT22;6424;48.520;11.228;2023-12-04T10:40:46;-6.00;99.90
12720;DHT22;6424;48.520;11.228;2023-12-04T10:43:31;-6.00;99.90
12720;DHT22;6424;48.520;11.228;2023-12-04T10:46:15;-5.90;99.90
12720;DHT22;6424;48.520;11.228;2023-12-04T10:49:04;-5.90;99.90
12720;DHT22;6424;48.520;11.228;2023-12-04T10:51:49;-5.80;99.90
12720;DHT22;6424;48.520;11.228;2023-12-04T10:54:33;-5.80;99.90
12720;DHT22;6424;48.520;11.228;2023-12-04T10:57:28;-5.70;99.90
12720;DHT22;6424;48.520;11.228;2023-12-04T11:00:16;-5.60;99.90
12720;DHT22;6424;48.520;11.228;2023-12-04T11:03:09;-5.50;99.90
12720;DHT22;6424;48.520;11.228;2023-12-04T11:06:00;-5.40;99.90
12720;DHT22;6424;48.520;11.228;2023-12-04T11:08:47;-5.30;99.90
12720;DHT22;6424;48.520;11.228;2023-12-04T11:11:35;-5.30;99.90
12720;DHT22;6424;48.520;11.228;2023-12-04T11:14:22;-5.40;99.90
12720;DHT22;6424;48.520;11.228;2023-12-04T11:17:09;-5.40;99.90
12720;DHT22;6424;48.520;11.228;2023-12-04T11:19:59;-5.40;99.90
12720;DHT22;6424;48.520;11.228;2023-12-04T11:22:46;-5.40;99.90
12720;DHT22;6424;48.520;11.228;2023-12-04T11:25:32;-5.20;99.90
12720;DHT22;6424;48.520;11.228;2023-12-04T11:28:19;-5.20;99.90
12720;DHT22;6424;48.520;11.228;2023-12-04T11:31:05;-5.10;99.90
12720;DHT22;6424;48.520;11.228;2023-12-04T11:33:49;-4.90;99.90
12720;DHT22;6424;48.520;11.228;2023-12-04T11:36:34;-4.70;99.90
12720;DHT22;6424;48.520;11.228;2023-12-04T11:39:19;-4.50;99.90
12720;DHT22;6424;48.520;11.228;2023-12-04T11:42:06;-4.40;99.90
12720;DHT22;6424;48.520;11.228;2023-12-04T11:44:58;-4.40;99.90
12720;DHT22;6424;48.520;11.228;2023-12-04T11:47:50;-4.40;99.90
12720;DHT22;6424;48.520;11.228;2023-12-04T11:50:35;-4.50;99.90
12720;DHT22;6424;48.520;11.228;2023-12-04T11:53:19;-4.80;99.90
12720;DHT22;6424;48.520;11.228;2023-12-04T11:56:13;-5.10;99.90
12720;DHT22;6424;48.520;11.228;2023-12-04T11:59:05;-5.30;99.90
12720;DHT22;6424;48.520;11.228;2023-12-04T12:01:50;-5.40;99.90
12720;DHT22;6424;48.520;11.228;2023-12-04T12:04:38;-5.30;99.90
12720;DHT22;6424;48.520;11.228;2023-12-04T12:07:23;-5.30;99.90
12720;DHT22;6424;48.520;11.228;2023-12-04T12:10:07;-5.30;99.90
12720;DHT22;6424;48.520;11.228;2023-12-04T12:12:53;-5.20;99.90
12720;DHT22;6424;48.520;11.228;2023-12-04T12:15:38;-5.00;99.90
12720;DHT22;6424;48.520;11.228;2023-12-04T12:18:22;-5.00;99.90
12720;DHT22;6424;48.520;11.228;2023-12-04T12:21:08;-5.00;99.90
12720;DHT22;6424;48.520;11.228;2023-12-04T12:23:52;-5.00;99.90
12720;DHT22;6424;48.520;11.228;2023-12-04T12:26:37;-4.90;99.90
12720;DHT22;6424;48.520;11.228;2023-12-04T12:29:22;-4.90;99.90
12720;DHT22;6424;48.520;11.228;2023-12-04T12:32:07;-4.90;99.90
12720;DHT22;6424;48.520;11.228;2023-12-04T12:34:52;-4.90;99.90
12720;DHT22;6424;48.520;11.228;2023-12-04T12:37:38;-4.90;99.90
12720;DHT22;6424;48.520;11.228;2023-12-04T12:40:22;-4.90;99.90
12720;DHT22;6424;48.520;11.228;2023-12-04T12:43:08;-4.90;99.90
12720;DHT22;6424;48.520;11.228;2023-12-04T12:45:53;-4.90;99.90
12720;DHT22;6424;48.520;11.228;2023-12-04T12:48:37;-5.00;99.90
12720;DHT22;6424;48.520;11.228;2023-12-04T12:51:23;-5.00;99.90
12720;DHT22;6424;48.520;11.228;2023-12-04T12:54:08;-5.10;99.90
12720;DHT22;6424;48.520;11.228;2023-12-04T12:56:52;-5.10;99.90
12720;DHT22;6424;48.520;11.228;2023-12-04T12:59:38;-5.00;99.90
12720;DHT22;6424;48.520;11.228;2023-12-04T13:02:22;-4.80;99.90
12720;DHT22;6424;48.520;11.228;2023-12-04T13:05:07;-4.70;99.90
12720;DHT22;6424;48.520;11.228;2023-12-04T13:07:51;-4.50;99.90
12720;DHT22;6424;48.520;11.228;2023-12-04T13:10:36;-4.40;99.90
12720;DHT22;6424;48.520;11.228;2023-12-04T13:13:21;-4.40;99.90
12720;DHT22;6424;48.520;11.228;2023-12-04T13:16:06;-4.40;99.90
12720;DHT22;6424;48.520;11.228;2023-12-04T13:18:50;-4.30;99.90
12720;DHT22;6424;48.520;11.228;2023-12-04T13:21:35;-4.10;99.90
12720;DHT22;6424;48.520;11.228;2023-12-04T13:24:19;-4.10;99.90
12720;DHT22;6424;48.520;11.228;2023-12-04T13:27:03;-4.10;99.90
12720;DHT22;6424;48.520;11.228;2023-12-04T13:29:48;-4.20;99.90
12720;DHT22;6424;48.520;11.228;2023-12-04T13:32:35;-4.40;99.90
12720;DHT22;6424;48.520;11.228;2023-12-04T13:35:20;-4.60;99.90
12720;DHT22;6424;48.520;11.228;2023-12-04T13:38:04;-4.90;99.90
12720;DHT22;6424;48.520;11.228;2023-12-04T13:40:51;-5.10;99.90
12720;DHT22;6424;48.520;11.228;2023-12-04T13:44:03;-5.10;99.90
12720;DHT22;6424;48.520;11.228;2023-12-04T13:46:47;-5.10;99.90
12720;DHT22;6424;48.520;11.228;2023-12-04T13:49:33;-5.10;99.90
12720;DHT22;6424;48.520;11.228;2023-12-04T13:52:17;-5.10;99.90
12720;DHT22;6424;48.520;11.228;2023-12-04T13:55:06;-5.20;99.90
12720;DHT22;6424;48.520;11.228;2023-12-04T13:58:04;-5.20;99.90
12720;DHT22;6424;48.520;11.228;2023-12-04T14:00:49;-5.00;99.90
12720;DHT22;6424;48.520;11.228;2023-12-04T14:03:33;-4.80;99.90
12720;DHT22;6424;48.520;11.228;2023-12-04T14:06:18;-4.80;99.90
12720;DHT22;6424;48.520;11.228;2023-12-04T14:09:03;-4.70;99.90
12720;DHT22;6424;48.520;11.228;2023-12-04T14:11:53;-4.80;99.90
12720;DHT22;6424;48.520;11.228;2023-12-04T14:14:38;-4.80;99.90
12720;DHT22;6424;48.520;11.228;2023-12-04T14:17:22;-4.90;99.90
12720;DHT22;6424;48.520;11.228;2023-12-04T14:20:08;-4.90;99.90
12720;DHT22;6424;48.520;11.228;2023-12-04T14:22:59;-5.00;99.90
12720;DHT22;6424;48.520;11.228;2023-12-04T14:25:43;-5.00;99.90
12720;DHT22;6424;48.520;11.228;2023-12-04T14:28:30;-5.00;99.90
12720;DHT22;6424;48.520;11.228;2023-12-04T14:31:14;-5.00;99.90
12720;DHT22;6424;48.520;11.228;2023-12-04T14:33:59;-5.10;99.90
12720;DHT22;6424;48.520;11.228;2023-12-04T14:36:43;-5.10;99.90
12720;DHT22;6424;48.520;11.228;2023-12-04T14:39:27;-5.10;99.90
12720;DHT22;6424;48.520;11.228;2023-12-04T14:42:12;-5.20;99.90
12720;DHT22;6424;48.520;11.228;2023-12-04T14:44:56;-5.10;99.90
12720;DHT22;6424;48.520;11.228;2023-12-04T14:47:41;-5.10;99.90
12720;DHT22;6424;48.520;11.228;2023-12-04T14:50:25;-5.30;99.90
12720;DHT22;6424;48.520;11.228;2023-12-04T14:53:09;-5.40;99.90
12720;DHT22;6424;48.520;11.228;2023-12-04T14:56:12;-5.50;99.90
12720;DHT22;6424;48.520;11.228;2023-12-04T14:59:16;-5.70;99.90
12720;DHT22;6424;48.520;11.228;2023-12-04T15:02:09;-5.80;99.90
12720;DHT22;6424;48.520;11.228;2023-12-04T15:05:03;-5.80;99.90
12720;DHT22;6424;48.520;11.228;2023-12-04T15:07:47;-5.80;99.90
12720;DHT22;6424;48.520;11.228;2023-12-04T15:10:41;-5.90;99.90
12720;DHT22;6424;48.520;11.228;2023-12-04T15:13:44;-6.00;99.90
12720;DHT22;6424;48.520;11.228;2023-12-04T15:16:34;-6.10;99.90
12720;DHT22;6424;48.520;11.228;2023-12-04T15:19:22;-6.20;99.90
12720;DHT22;6424;48.520;11.228;2023-12-04T15:22:19;-6.30;99.90
12720;DHT22;6424;48.520;11.228;2023-12-04T15:25:04;-6.30;99.90
12720;DHT22;6424;48.520;11.228;2023-12-04T15:27:50;-6.30;99.90
12720;DHT22;6424;48.520;11.228;2023-12-04T15:30:35;-6.30;99.90
12720;DHT22;6424;48.520;11.228;2023-12-04T15:33:20;-6.30;99.90
12720;DHT22;6424;48.520;11.228;2023-12-04T15:36:05;-6.30;99.90
12720;DHT22;6424;48.520;11.228;2023-12-04T15:38:50;-6.40;99.90
12720;DHT22;6424;48.520;11.228;2023-12-04T15:41:35;-6.40;99.90
12720;DHT22;6424;48.520;11.228;2023-12-04T15:44:20;-6.30;99.90
12720;DHT22;6424;48.520;11.228;2023-12-04T15:47:05;-6.30;99.90
12720;DHT22;6424;48.520;11.228;2023-12-04T15:49:50;-6.30;99.90
12720;DHT22;6424;48.520;11.228;2023-12-04T15:52:35;-6.30;99.90
12720;DHT22;6424;48.520;11.228;2023-12-04T15:55:23;-6.30;99.90
12720;DHT22;6424;48.520;11.228;2023-12-04T15:58:10;-6.20;99.90
12720;DHT22;6424;48.520;11.228;2023-12-04T16:00:54;-6.10;99.90
12720;DHT22;6424;48.520;11.228;2023-12-04T16:03:38;-6.10;99.90
12720;DHT22;6424;48.520;11.228;2023-12-04T16:06:22;-6.10;99.90
12720;DHT22;6424;48.520;11.228;2023-12-04T16:09:06;-6.10;99.90
12720;DHT22;6424;48.520;11.228;2023-12-04T16:11:51;-6.20;99.90
12720;DHT22;6424;48.520;11.228;2023-12-04T16:14:37;-6.20;99.90
12720;DHT22;6424;48.520;11.228;2023-12-04T16:17:21;-6.20;99.90
12720;DHT22;6424;48.520;11.228;2023-12-04T16:20:07;-6.20;99.90
12720;DHT22;6424;48.520;11.228;2023-12-04T16:22:55;-6.20;99.90
12720;DHT22;6424;48.520;11.228;2023-12-04T16:25:39;-6.20;99.90
12720;DHT22;6424;48.520;11.228;2023-12-04T16:28:23;-6.20;99.90
12720;DHT22;6424;48.520;11.228;2023-12-04T16:31:08;-6.20;99.90
12720;DHT22;6424;48.520;11.228;2023-12-04T16:33:53;-6.20;99.90
12720;DHT22;6424;48.520;11.228;2023-12-04T16:36:37;-6.20;99.90
12720;DHT22;6424;48.520;11.228;2023-12-04T16:39:25;-6.20;99.90
12720;DHT22;6424;48.520;11.228;2023-12-04T16:42:10;-6.20;99.90
12720;DHT22;6424;48.520;11.228;2023-12-04T16:44:55;-6.20;99.90
12720;DHT22;6424;48.520;11.228;2023-12-04T16:47:39;-6.20;99.90
12720;DHT22;6424;48.520;11.228;2023-12-04T16:50:23;-6.20;99.90
12720;DHT22;6424;48.520;11.228;2023-12-04T16:53:08;-6.20;99.90
12720;DHT22;6424;48.520;11.228;2023-12-04T16:55:52;-6.20;99.90
12720;DHT22;6424;48.520;11.228;2023-12-04T16:58:38;-6.20;99.90
12720;DHT22;6424;48.520;11.228;2023-12-04T17:01:23;-6.20;99.90
12720;DHT22;6424;48.520;11.228;2023-12-04T17:04:08;-6.20;99.90
12720;DHT22;6424;48.520;11.228;2023-12-04T17:06:52;-6.20;99.90
12720;DHT22;6424;48.520;11.228;2023-12-04T17:09:38;-6.30;99.90
12720;DHT22;6424;48.520;11.228;2023-12-04T17:12:22;-6.40;99.90
12720;DHT22;6424;48.520;11.228;2023-12-04T17:15:07;-6.40;99.90
12720;DHT22;6424;48.520;11.228;2023-12-04T17:17:51;-6.50;99.90
12720;DHT22;6424;48.520;11.228;2023-12-04T17:20:36;-6.50;99.90